createdAt,value
2023-02-13T00:02:25.171Z,100457.75
2023-02-13T00:04:51.692Z,100451.72
2023-02-13T00:07:18.128Z,100459.13
2023-02-13T00:09:44.612Z,100455.25
2023-02-13T00:12:11.058Z,100461.16
2023-02-13T00:14:38.056Z,100461.59
2023-02-13T00:17:04.644Z,100448.00
2023-02-13T00:19:31.135Z,100455.00
2023-02-13T00:21:57.577Z,100459.53
2023-02-13T00:24:24.049Z,100464.34
2023-02-13T00:26:50.495Z,100462.31
2023-02-13T00:29:17.040Z,100458.16
2023-02-13T00:31:43.653Z,100454.16
2023-02-13T00:34:10.420Z,100465.03
2023-02-13T00:36:36.874Z,100458.28
2023-02-13T00:39:03.370Z,100450.72
2023-02-13T00:41:30.088Z,100452.69
2023-02-13T00:43:56.591Z,100463.41
2023-02-13T00:46:23.156Z,100476.34
2023-02-13T00:48:49.609Z,100477.47
2023-02-13T00:51:16.099Z,100471.25
2023-02-13T00:53:42.583Z,100456.75
2023-02-13T00:56:09.109Z,100449.63
2023-02-13T00:58:36.275Z,100458.88
2023-02-13T01:01:02.763Z,100463.25
2023-02-13T01:03:29.382Z,100442.44
2023-02-13T01:05:56.273Z,100440.06
2023-02-13T01:08:22.935Z,100448.56
2023-02-13T01:10:49.543Z,100449.81
2023-02-13T01:13:16.542Z,100449.38
2023-02-13T01:15:43.069Z,100469.97
2023-02-13T01:18:09.785Z,100474.84
2023-02-13T01:20:36.389Z,100441.75
2023-02-13T01:23:02.896Z,100443.06
2023-02-13T01:25:29.366Z,100458.69
2023-02-13T01:27:57.677Z,100460.00
2023-02-13T01:30:24.186Z,100445.81
2023-02-13T01:32:50.648Z,100442.81
2023-02-13T01:35:17.199Z,100457.25
2023-02-13T01:37:43.810Z,100448.06
2023-02-13T01:40:11.620Z,100445.41
2023-02-13T01:42:38.084Z,100416.00
2023-02-13T01:45:05.527Z,100411.16
2023-02-13T01:47:35.006Z,100401.53
2023-02-13T01:50:07.219Z,100400.53
2023-02-13T01:52:33.781Z,100408.25
2023-02-13T01:55:01.719Z,100413.47
2023-02-13T01:57:28.679Z,100422.78
2023-02-13T01:59:56.656Z,100407.06
2023-02-13T02:02:23.279Z,100402.78
2023-02-13T02:04:49.847Z,100422.22
2023-02-13T02:07:21.399Z,100427.03
2023-02-13T02:09:49.082Z,100444.56
2023-02-13T02:12:54.476Z,100438.13
2023-02-13T02:15:21.373Z,100459.84
2023-02-13T02:17:48.100Z,100458.16
2023-02-13T02:20:24.506Z,100456.88
2023-02-13T02:22:55.270Z,100460.78
2023-02-13T02:25:24.730Z,100445.75
2023-02-13T02:27:57.734Z,100424.28
2023-02-13T02:30:35.463Z,100432.09
2023-02-13T02:33:05.996Z,100444.66
2023-02-13T02:35:34.183Z,100419.19
2023-02-13T02:38:15.185Z,100412.72
2023-02-13T02:40:41.760Z,100419.34
2023-02-13T02:43:08.235Z,100422.50
2023-02-13T02:45:34.665Z,100438.75
2023-02-13T02:48:23.772Z,100435.63
2023-02-13T02:50:50.283Z,100424.31
2023-02-13T02:53:35.956Z,100420.16
2023-02-13T02:56:06.512Z,100436.22
2023-02-13T02:58:56.212Z,100449.88
2023-02-13T03:01:44.203Z,100439.22
2023-02-13T03:04:37.641Z,100449.88
2023-02-13T03:07:05.393Z,100444.13
2023-02-13T03:09:51.262Z,100457.06
2023-02-13T03:12:37.724Z,100449.59
2023-02-13T03:15:04.390Z,100452.53
2023-02-13T03:18:03.095Z,100443.81
2023-02-13T03:20:51.530Z,100446.03
2023-02-13T03:23:20.841Z,100443.97
2023-02-13T03:25:54.880Z,100449.66
2023-02-13T03:28:42.924Z,100447.94
2023-02-13T03:31:24.523Z,100437.47
2023-02-13T03:34:17.356Z,100453.41
2023-02-13T03:37:04.492Z,100445.94
2023-02-13T03:39:52.286Z,100453.56
2023-02-13T03:42:21.717Z,100449.59
2023-02-13T03:45:12.082Z,100427.94
2023-02-13T03:47:38.660Z,100428.50
2023-02-13T03:50:05.940Z,100433.03
2023-02-13T03:52:51.389Z,100443.34
2023-02-13T03:55:39.868Z,100436.13
2023-02-13T03:58:51.091Z,100450.31
2023-02-13T04:01:18.589Z,100447.94
2023-02-13T04:03:56.721Z,100442.78
2023-02-13T04:06:24.941Z,100455.63
2023-02-13T04:08:51.403Z,100461.94
2023-02-13T04:11:40.948Z,100450.59
2023-02-13T04:14:08.266Z,100469.44
2023-02-13T04:16:35.868Z,100474.16
2023-02-13T04:19:02.326Z,100476.03
2023-02-13T04:21:31.882Z,100484.47
2023-02-13T04:23:58.334Z,100473.63
2023-02-13T04:26:24.824Z,100468.31
2023-02-13T04:28:51.284Z,100487.38
2023-02-13T04:31:17.936Z,100468.31
2023-02-13T04:33:44.494Z,100466.09
2023-02-13T04:36:10.967Z,100482.38
2023-02-13T04:38:37.453Z,100498.47
2023-02-13T04:41:03.937Z,100511.72
2023-02-13T04:43:30.442Z,100502.72
2023-02-13T04:45:57.065Z,100509.19
2023-02-13T04:48:23.611Z,100527.47
2023-02-13T04:50:50.089Z,100540.13
2023-02-13T04:53:16.563Z,100539.41
2023-02-13T04:55:43.020Z,100548.19
2023-02-13T04:58:09.512Z,100534.44
2023-02-13T05:00:37.652Z,100543.09
2023-02-13T05:03:04.671Z,100548.38
2023-02-13T05:05:31.172Z,100552.00
2023-02-13T05:07:57.661Z,100552.66
2023-02-13T05:10:24.141Z,100541.22
2023-02-13T05:13:05.843Z,100546.25
2023-02-13T05:15:32.402Z,100552.81
2023-02-13T05:17:58.889Z,100554.38
2023-02-13T05:20:25.311Z,100554.50
2023-02-13T05:23:11.067Z,100557.19
2023-02-13T05:25:37.796Z,100552.66
2023-02-13T05:28:04.605Z,100548.59
2023-02-13T05:30:31.059Z,100563.22
2023-02-13T05:32:57.493Z,100560.00
2023-02-13T05:35:24.834Z,100532.94
2023-02-13T05:37:51.331Z,100528.28
2023-02-13T05:40:17.961Z,100530.41
2023-02-13T05:42:44.526Z,100537.84
2023-02-13T05:45:11.018Z,100543.09
2023-02-13T05:47:37.518Z,100547.81
2023-02-13T05:50:04.011Z,100544.19
2023-02-13T05:52:30.476Z,100560.81
2023-02-13T05:54:56.909Z,100540.66
2023-02-13T05:57:23.385Z,100551.31
2023-02-13T05:59:49.823Z,100558.56
2023-02-13T06:02:16.292Z,100547.22
2023-02-13T06:04:43.140Z,100564.91
2023-02-13T06:07:09.725Z,100569.72
2023-02-13T06:09:36.226Z,100568.06
2023-02-13T06:12:02.712Z,100583.56
2023-02-13T06:14:29.141Z,100580.66
2023-02-13T06:16:55.576Z,100571.25
2023-02-13T06:19:22.112Z,100555.28
2023-02-13T06:21:48.587Z,100556.63
2023-02-13T06:24:15.043Z,100559.31
2023-02-13T06:26:41.530Z,100562.84
2023-02-13T06:29:09.336Z,100566.13
2023-02-13T06:31:35.870Z,100575.72
2023-02-13T06:34:02.353Z,100560.06
2023-02-13T06:36:28.831Z,100536.19
2023-02-13T06:38:55.289Z,100530.41
2023-02-13T06:41:22.220Z,100528.78
2023-02-13T06:43:48.719Z,100519.75
2023-02-13T06:46:15.182Z,100532.13
2023-02-13T06:48:41.786Z,100525.88
2023-02-13T06:51:08.281Z,100520.59
2023-02-13T06:53:34.746Z,100529.94
2023-02-13T06:56:03.523Z,100526.34
2023-02-13T06:58:30.023Z,100522.22
2023-02-13T07:00:56.728Z,100521.00
2023-02-13T07:03:23.545Z,100535.34
2023-02-13T07:05:52.071Z,100534.28
2023-02-13T07:08:18.542Z,100550.06
2023-02-13T07:10:45.026Z,100549.25
2023-02-13T07:13:11.523Z,100549.59
2023-02-13T07:15:37.975Z,100560.88
2023-02-13T07:18:05.609Z,100567.16
2023-02-13T07:20:32.239Z,100560.75
2023-02-13T07:22:59.743Z,100587.09
2023-02-13T07:25:26.320Z,100571.38
2023-02-13T07:27:52.775Z,100572.34
2023-02-13T07:30:19.212Z,100594.81
2023-02-13T07:32:45.634Z,100588.25
2023-02-13T07:35:12.120Z,100597.59
2023-02-13T07:37:38.558Z,100619.81
2023-02-13T07:40:06.556Z,100622.00
2023-02-13T07:42:33.751Z,100606.97
2023-02-13T07:45:00.292Z,100615.19
2023-02-13T07:47:26.718Z,100608.97
2023-02-13T07:49:54.824Z,100619.97
2023-02-13T07:52:21.348Z,100612.91
2023-02-13T07:54:48.065Z,100612.84
2023-02-13T07:57:15.027Z,100612.00
2023-02-13T07:59:41.585Z,100635.81
2023-02-13T08:02:12.164Z,100607.31
2023-02-13T08:04:38.718Z,100613.91
2023-02-13T08:07:05.155Z,100623.75
2023-02-13T08:09:50.438Z,100631.53
2023-02-13T08:12:16.861Z,100636.78
2023-02-13T08:14:43.294Z,100639.06
2023-02-13T08:17:09.746Z,100623.72
2023-02-13T08:19:36.213Z,100612.28
2023-02-13T08:22:02.628Z,100603.59
2023-02-13T08:24:29.075Z,100604.31
2023-02-13T08:26:55.958Z,100604.31
2023-02-13T08:29:22.579Z,100606.13
2023-02-13T08:31:49.068Z,100608.34
2023-02-13T08:34:15.542Z,100613.81
2023-02-13T08:36:41.957Z,100634.97
2023-02-13T08:39:09.344Z,100641.06
2023-02-13T08:41:35.850Z,100653.28
2023-02-13T08:44:02.313Z,100668.91
2023-02-13T08:46:28.851Z,100669.19
2023-02-13T08:48:55.566Z,100650.63
2023-02-13T08:51:22.034Z,100664.78
2023-02-13T08:53:48.536Z,100671.41
2023-02-13T08:56:14.982Z,100661.03
2023-02-13T08:58:43.265Z,100668.19
2023-02-13T09:01:09.827Z,100657.66
2023-02-13T09:03:36.413Z,100655.94
2023-02-13T09:06:03.034Z,100674.38
2023-02-13T09:08:29.611Z,100677.91
2023-02-13T09:10:56.949Z,100688.59
2023-02-13T09:13:23.463Z,100694.91
2023-02-13T09:15:49.929Z,100685.88
2023-02-13T09:18:16.401Z,100681.22
2023-02-13T09:20:43.005Z,100670.13
2023-02-13T09:23:09.482Z,100674.31
2023-02-13T09:25:36.437Z,100686.38
2023-02-13T09:28:02.959Z,100686.44
2023-02-13T09:30:29.493Z,100708.91
2023-02-13T09:32:55.990Z,100722.56
2023-02-13T09:35:22.516Z,100718.88
2023-02-13T09:37:48.985Z,100739.31
2023-02-13T09:40:17.003Z,100754.69
2023-02-13T09:42:43.433Z,100764.63
2023-02-13T09:45:10.786Z,100786.25
2023-02-13T09:47:37.630Z,100799.16
2023-02-13T09:50:07.303Z,100812.38
2023-02-13T09:52:34.558Z,100819.84
2023-02-13T09:55:04.373Z,100839.47
2023-02-13T09:57:34.954Z,100864.31
2023-02-13T10:00:21.469Z,100846.69
2023-02-13T10:06:36.683Z,100816.00
2023-02-13T10:09:21.259Z,100826.00
2023-02-13T10:12:01.599Z,100825.66
2023-02-13T10:14:46.397Z,100818.09
2023-02-13T10:17:24.021Z,100818.38
2023-02-13T10:19:50.967Z,100802.28
2023-02-13T10:22:18.459Z,100800.72
2023-02-13T10:24:52.171Z,100788.81
2023-02-13T10:27:23.072Z,100806.00
2023-02-13T10:30:05.164Z,100803.66
2023-02-13T10:32:46.753Z,100802.00
2023-02-13T10:35:29.700Z,100797.34
2023-02-13T10:37:56.671Z,100813.06
2023-02-13T10:40:24.803Z,100830.56
2023-02-13T10:42:54.288Z,100874.94
2023-02-13T10:45:20.696Z,100832.13
2023-02-13T10:48:03.570Z,100806.19
2023-02-13T10:50:53.647Z,100846.38
2023-02-13T10:53:23.010Z,100882.75
2023-02-13T10:55:49.506Z,100895.91
2023-02-13T10:58:18.413Z,100831.09
2023-02-13T11:00:46.761Z,100796.28
2023-02-13T11:03:20.761Z,100837.94
2023-02-13T11:05:47.296Z,100812.16
2023-02-13T11:08:21.400Z,100733.09
2023-02-13T11:10:47.977Z,100610.56
2023-02-13T11:13:17.407Z,100622.84
2023-02-13T11:15:43.960Z,100565.06
2023-02-13T11:18:13.562Z,100565.19
2023-02-13T11:20:44.425Z,100556.56
2023-02-13T11:23:17.236Z,100529.38
2023-02-13T11:25:53.208Z,100472.13
2023-02-13T11:28:20.961Z,100455.94
2023-02-13T11:30:51.168Z,100427.03
2023-02-13T11:33:17.663Z,100416.16
2023-02-13T11:35:44.656Z,100420.94
2023-02-13T11:38:18.232Z,100407.59
2023-02-13T11:40:47.132Z,100415.25
2023-02-13T11:43:23.799Z,100398.53
2023-02-13T11:46:01.111Z,100341.84
2023-02-13T11:48:27.767Z,100320.19
2023-02-13T11:50:56.106Z,100316.78
2023-02-13T11:53:32.858Z,100273.69
2023-02-13T11:56:03.857Z,100243.84
2023-02-13T11:58:31.385Z,100207.00
2023-02-13T12:01:16.749Z,100152.50
2023-02-13T12:03:43.620Z,100132.59
2023-02-13T12:06:14.964Z,100052.63
2023-02-13T12:08:42.059Z,100010.97
2023-02-13T12:11:28.978Z,100024.63
2023-02-13T12:13:55.504Z,99964.63
2023-02-13T12:16:41.393Z,99969.03
2023-02-13T12:19:11.160Z,99891.84
2023-02-13T12:21:47.094Z,99838.69
2023-02-13T12:24:19.425Z,99805.00
2023-02-13T12:26:48.413Z,99786.44
2023-02-13T12:29:20.599Z,99770.31
2023-02-13T12:31:47.215Z,99754.72
2023-02-13T12:34:34.217Z,99741.97
2023-02-13T12:37:24.037Z,99734.91
2023-02-13T12:39:55.684Z,99710.59
2023-02-13T12:42:40.554Z,99718.00
2023-02-13T12:45:25.585Z,99728.13
2023-02-13T12:47:54.781Z,99697.47
2023-02-13T12:50:22.047Z,99712.41
2023-02-13T12:52:54.232Z,99734.00
2023-02-13T12:55:39.483Z,99752.47
2023-02-13T12:58:18.089Z,99758.72
2023-02-13T13:00:50.662Z,99773.44
2023-02-13T13:03:25.549Z,99783.16
2023-02-13T13:06:13.632Z,99804.69
2023-02-13T13:08:59.205Z,99799.25
2023-02-13T13:11:44.452Z,99820.41
2023-02-13T13:14:10.869Z,99819.28
2023-02-13T13:16:45.254Z,99792.91
2023-02-13T13:19:23.871Z,99806.31
2023-02-13T13:22:05.381Z,99811.97
2023-02-13T13:24:38.025Z,99826.22
2023-02-13T13:27:04.579Z,99808.84
2023-02-13T13:29:42.884Z,99799.59
2023-02-13T13:32:09.689Z,99791.97
2023-02-13T13:34:36.221Z,99817.78
2023-02-13T13:37:21.490Z,99836.03
2023-02-13T13:39:54.042Z,99846.94
2023-02-13T13:42:23.097Z,99832.25
2023-02-13T13:45:01.958Z,99842.81
2023-02-13T13:47:40.898Z,99845.97
2023-02-13T13:50:17.504Z,99862.03
2023-02-13T13:52:44.027Z,99871.28
2023-02-13T13:55:30.576Z,99898.81
2023-02-13T13:57:56.998Z,99885.47
2023-02-13T14:00:25.151Z,99921.47
2023-02-13T14:02:52.823Z,99942.53
2023-02-13T14:05:25.336Z,99957.19
2023-02-13T14:07:53.392Z,99965.25
2023-02-13T14:10:25.879Z,99972.19
2023-02-13T14:12:55.434Z,99976.06
2023-02-13T14:15:34.235Z,99979.28
2023-02-13T14:18:01.476Z,100011.91
2023-02-13T14:20:40.381Z,99971.25
2023-02-13T14:23:07.690Z,99952.50
2023-02-13T14:25:34.381Z,99978.38
2023-02-13T14:28:01.561Z,100001.91
2023-02-13T14:30:32.793Z,100029.13
2023-02-13T14:33:00.476Z,100021.22
2023-02-13T14:35:27.764Z,100037.28
2023-02-13T14:37:54.673Z,100042.81
2023-02-13T14:40:22.047Z,100059.69
2023-02-13T14:43:08.201Z,100066.09
2023-02-13T14:45:36.021Z,100095.81
2023-02-13T14:48:03.516Z,100110.31
2023-02-13T14:50:31.092Z,100095.81
2023-02-13T14:52:58.015Z,100082.31
2023-02-13T14:55:27.388Z,100108.97
2023-02-13T14:57:54.450Z,100092.28
2023-02-13T15:00:39.541Z,100080.81
2023-02-13T15:03:11.419Z,100074.56
2023-02-13T15:05:37.910Z,100105.13
2023-02-13T15:08:14.247Z,100073.63
2023-02-13T15:10:40.660Z,100049.63
2023-02-13T15:13:13.033Z,100052.88
2023-02-13T15:15:39.912Z,100054.91
2023-02-13T15:18:10.540Z,100050.16
2023-02-13T15:20:37.751Z,100065.28
2023-02-13T15:23:06.663Z,100062.63
2023-02-13T15:25:36.675Z,100053.28
2023-02-13T15:28:03.889Z,100080.84
2023-02-13T15:30:31.166Z,100076.59
2023-02-13T15:33:01.450Z,100082.69
2023-02-13T15:35:29.313Z,100095.34
2023-02-13T15:37:55.858Z,100096.19
2023-02-13T15:40:24.509Z,100093.13
2023-02-13T15:42:51.110Z,100102.47
2023-02-13T15:45:17.888Z,100110.25
2023-02-13T15:47:45.462Z,100109.38
2023-02-13T15:50:19.346Z,100111.28
2023-02-13T15:52:45.838Z,100132.03
2023-02-13T15:55:31.345Z,100130.06
2023-02-13T15:57:58.371Z,100138.16
2023-02-13T16:00:29.209Z,100131.19
2023-02-13T16:02:56.187Z,100135.75
2023-02-13T16:05:38.506Z,100142.38
2023-02-13T16:08:20.743Z,100153.53
2023-02-13T16:10:47.418Z,100150.50
2023-02-13T16:13:16.969Z,100154.09
2023-02-13T16:15:46.200Z,100160.47
2023-02-13T16:18:19.176Z,100170.38
2023-02-13T16:20:45.606Z,100163.63
2023-02-13T16:23:21.250Z,100168.19
2023-02-13T16:25:47.790Z,100164.31
2023-02-13T16:28:21.612Z,100167.50
2023-02-13T16:30:52.299Z,100169.63
2023-02-13T16:33:22.846Z,100180.06
2023-02-13T16:35:56.575Z,100187.25
2023-02-13T16:38:33.035Z,100200.25
2023-02-13T16:41:00.497Z,100187.78
2023-02-13T16:43:34.879Z,100178.00
2023-02-13T16:46:19.558Z,100177.88
2023-02-13T16:48:58.929Z,100191.03
2023-02-13T16:51:37.613Z,100191.66
2023-02-13T16:54:15.587Z,100184.66
2023-02-13T16:56:45.005Z,100180.44
2023-02-13T16:59:17.630Z,100166.38
2023-02-13T17:01:44.164Z,100158.22
2023-02-13T17:04:16.575Z,100143.66
2023-02-13T17:06:43.353Z,100148.56
2023-02-13T17:09:09.883Z,100144.69
2023-02-13T17:11:36.326Z,100135.75
2023-02-13T17:14:06.644Z,100130.88
2023-02-13T17:16:33.153Z,100140.09
2023-02-13T17:18:59.720Z,100165.94
2023-02-13T17:21:27.314Z,100175.44
2023-02-13T17:23:53.863Z,100176.59
2023-02-13T17:26:20.408Z,100172.59
2023-02-13T17:28:49.153Z,100186.88
2023-02-13T17:31:15.701Z,100188.75
2023-02-13T17:33:43.261Z,100178.84
2023-02-13T17:36:10.624Z,100180.91
2023-02-13T17:38:37.105Z,100180.59
2023-02-13T17:41:05.807Z,100203.09
2023-02-13T17:43:32.278Z,100211.22
2023-02-13T17:46:01.175Z,100213.28
2023-02-13T17:48:28.095Z,100216.38
2023-02-13T17:50:54.641Z,100220.22
2023-02-13T17:53:22.079Z,100210.91
2023-02-13T17:55:48.560Z,100208.44
2023-02-13T17:58:15.102Z,100213.63
2023-02-13T18:00:41.639Z,100223.75
2023-02-13T18:03:08.251Z,100230.94
2023-02-13T18:05:34.818Z,100222.66
2023-02-13T18:08:02.729Z,100234.66
2023-02-13T18:10:29.809Z,100222.97
2023-02-13T18:12:57.209Z,100211.94
2023-02-13T18:15:24.384Z,100200.38
2023-02-13T18:17:50.856Z,100199.31
2023-02-13T18:20:18.298Z,100217.53
2023-02-13T18:22:44.878Z,100200.31
2023-02-13T18:25:11.432Z,100192.50
2023-02-13T18:27:37.897Z,100191.13
2023-02-13T18:30:07.325Z,100198.81
2023-02-13T18:32:33.890Z,100217.44
2023-02-13T18:35:00.449Z,100232.19
2023-02-13T18:37:33.456Z,100230.13
2023-02-13T18:40:00.071Z,100233.28
2023-02-13T18:42:26.572Z,100246.00
2023-02-13T18:44:53.048Z,100253.53
2023-02-13T18:47:19.632Z,100250.13
2023-02-13T18:49:46.480Z,100240.50
2023-02-13T18:56:00.719Z,100253.31
2023-02-13T18:58:27.125Z,100253.66
2023-02-13T19:00:53.578Z,100255.44
2023-02-13T19:03:20.056Z,100261.31
2023-02-13T19:05:46.559Z,100269.66
2023-02-13T19:08:12.972Z,100269.81
2023-02-13T19:10:39.538Z,100269.56
2023-02-13T19:13:05.942Z,100265.75
2023-02-13T19:15:32.474Z,100263.53
2023-02-13T19:17:58.952Z,100270.28
2023-02-13T19:20:25.354Z,100254.69
2023-02-13T19:22:51.840Z,100260.88
2023-02-13T19:25:19.122Z,100259.19
2023-02-13T19:27:45.799Z,100263.66
2023-02-13T19:30:12.607Z,100277.72
2023-02-13T19:32:39.213Z,100276.56
2023-02-13T19:35:05.882Z,100290.16
2023-02-13T19:37:43.000Z,100280.41
2023-02-13T19:40:10.864Z,100267.03
2023-02-13T19:42:39.752Z,100270.28
2023-02-13T19:45:06.609Z,100265.00
2023-02-13T19:47:33.453Z,100247.66
2023-02-13T19:50:00.070Z,100275.13
2023-02-13T19:52:26.556Z,100279.06
2023-02-13T19:54:54.163Z,100272.81
2023-02-13T19:57:21.935Z,100270.06
2023-02-13T19:59:48.482Z,100265.88
2023-02-13T20:02:15.362Z,100269.94
2023-02-13T20:04:41.861Z,100290.34
2023-02-13T20:07:08.630Z,100288.97
2023-02-13T20:09:37.900Z,100292.13
2023-02-13T20:12:04.509Z,100285.41
2023-02-13T20:14:30.945Z,100296.19
2023-02-13T20:16:58.313Z,100300.47
2023-02-13T20:19:24.763Z,100301.22
2023-02-13T20:21:51.346Z,100300.94
2023-02-13T20:24:17.775Z,100304.88
2023-02-13T20:26:44.267Z,100303.59
2023-02-13T20:29:10.827Z,100286.59
2023-02-13T20:31:39.501Z,100289.06
2023-02-13T20:34:06.177Z,100280.88
2023-02-13T20:36:32.892Z,100290.59
2023-02-13T20:39:00.195Z,100283.84
2023-02-13T20:41:30.375Z,100275.66
2023-02-13T20:43:57.531Z,100277.31
2023-02-13T20:46:24.022Z,100276.06
2023-02-13T20:48:50.517Z,100272.31
2023-02-13T20:51:17.546Z,100250.97
2023-02-13T20:53:44.213Z,100263.41
2023-02-13T20:56:14.436Z,100240.59
2023-02-13T20:58:41.284Z,100233.75
2023-02-13T21:01:14.225Z,100241.94
2023-02-13T21:03:41.298Z,100246.53
2023-02-13T21:06:07.984Z,100237.44
2023-02-13T21:08:34.550Z,100229.81
2023-02-13T21:11:02.160Z,100229.03
2023-02-13T21:13:29.094Z,100238.25
2023-02-13T21:16:02.921Z,100247.47
2023-02-13T21:18:29.416Z,100250.44
2023-02-13T21:20:57.477Z,100240.59
2023-02-13T21:23:24.158Z,100239.56
2023-02-13T21:25:50.602Z,100242.53
2023-02-13T21:28:17.055Z,100240.78
2023-02-13T21:30:43.696Z,100238.91
2023-02-13T21:33:10.310Z,100238.13
2023-02-13T21:35:36.739Z,100246.22
2023-02-13T21:38:03.248Z,100258.41
2023-02-13T21:40:29.698Z,100266.16
2023-02-13T21:42:56.405Z,100269.19
2023-02-13T21:45:22.828Z,100287.00
2023-02-13T21:47:49.388Z,100289.59
2023-02-13T21:50:15.808Z,100279.09
2023-02-13T21:52:42.273Z,100287.59
2023-02-13T21:55:08.985Z,100292.84
2023-02-13T21:57:35.444Z,100273.25
2023-02-13T22:00:04.028Z,100280.56
2023-02-13T22:02:39.514Z,100280.84
2023-02-13T22:05:06.070Z,100292.56
2023-02-13T22:07:52.528Z,100292.38
2023-02-13T22:10:18.970Z,100289.38
2023-02-13T22:12:45.448Z,100303.31
2023-02-13T22:15:12.056Z,100287.78
2023-02-13T22:17:38.533Z,100264.91
2023-02-13T22:20:05.213Z,100262.59
2023-02-13T22:22:31.854Z,100262.78
2023-02-13T22:24:58.305Z,100258.00
2023-02-13T22:27:24.832Z,100249.03
2023-02-13T22:29:51.462Z,100251.41
2023-02-13T22:32:18.171Z,100256.75
2023-02-13T22:34:44.839Z,100245.59
2023-02-13T22:37:12.898Z,100248.66
2023-02-13T22:39:39.694Z,100252.31
2023-02-13T22:42:06.294Z,100235.22
2023-02-13T22:44:32.899Z,100228.75
2023-02-13T22:46:59.557Z,100226.94
2023-02-13T22:49:26.304Z,100231.22
2023-02-13T22:51:52.902Z,100240.28
2023-02-13T22:54:19.473Z,100244.50
2023-02-13T22:56:46.089Z,100257.28
2023-02-13T22:59:12.664Z,100265.69
2023-02-13T23:01:39.812Z,100293.88
2023-02-13T23:04:06.463Z,100307.69
2023-02-13T23:06:33.051Z,100307.50
2023-02-13T23:08:59.638Z,100314.63
2023-02-13T23:11:45.943Z,100310.81
2023-02-13T23:14:12.692Z,100306.38
2023-02-13T23:16:58.000Z,100299.84
2023-02-13T23:19:25.548Z,100304.03
2023-02-13T23:21:52.160Z,100300.47
2023-02-13T23:24:18.937Z,100308.03
2023-02-13T23:26:45.557Z,100304.63
2023-02-13T23:29:12.171Z,100307.91
2023-02-13T23:31:38.902Z,100307.41
2023-02-13T23:34:05.575Z,100307.13
2023-02-13T23:36:32.484Z,100325.97
2023-02-13T23:38:59.097Z,100325.78
2023-02-13T23:41:25.727Z,100321.56
2023-02-13T23:43:52.330Z,100301.91
2023-02-13T23:46:19.029Z,100290.88
2023-02-13T23:48:46.268Z,100303.13
2023-02-13T23:51:12.841Z,100291.91
2023-02-13T23:53:39.458Z,100281.56
2023-02-13T23:56:06.490Z,100278.44
2023-02-13T23:58:33.119Z,100273.53
